Time;durP1;ratioP1;P1;durP2;ratioP2;P2;SDS_P1;SDS_P2;PMS_P1;PMS_P2;Temp;Humidity;BMP_temperature;BMP_pressure;BME280_temperature;BME280_humidity;BME280_pressure;Samples;Min_cycle;Max_cycle;Signal;HPM_P1;HPM_P2
2023/10/24 00:01:19;;;;;;;11.97;11.67;;;22.90;95.20;;;;;;5031977;28;20473;-70
2023/10/24 00:03:46;;;;;;;11.20;10.90;;;22.90;95.30;;;;;;5031770;28;20468;-70
2023/10/24 00:06:15;;;;;;;11.80;11.47;;;22.90;95.30;;;;;;5031705;28;20495;-71
2023/10/24 00:08:42;;;;;;;11.67;11.27;;;22.90;95.30;;;;;;5038285;28;20703;-70
2023/10/24 00:11:09;;;;;;;11.60;11.20;;;22.90;95.30;;;;;;5031811;28;20520;-69
2023/10/24 00:13:38;;;;;;;11.20;10.90;;;22.90;95.30;;;;;;5031911;28;20953;-69
2023/10/24 00:16:05;;;;;;;12.43;12.07;;;22.90;95.30;;;;;;5038438;28;20500;-68
2023/10/24 00:18:32;;;;;;;11.50;11.20;;;22.90;95.30;;;;;;5031841;28;20469;-70
2023/10/24 00:21:00;;;;;;;11.53;11.23;;;22.90;95.30;;;;;;5031644;28;20481;-69
2023/10/24 00:23:29;;;;;;;11.30;11.00;;;22.90;95.30;;;;;;5031522;28;20446;-69
2023/10/24 00:25:56;;;;;;;11.33;11.03;;;22.90;95.30;;;;;;5031443;28;20461;-71
2023/10/24 00:28:22;;;;;;;11.50;11.20;;;22.90;95.30;;;;;;5035528;28;20441;-70
2023/10/24 00:30:51;;;;;;;11.27;10.93;;;22.90;95.30;;;;;;5033396;28;20473;-70
2023/10/24 00:33:18;;;;;;;12.93;12.53;;;22.90;95.30;;;;;;5031532;28;20476;-70
2023/10/24 00:35:45;;;;;;;12.33;12.03;;;22.90;95.40;;;;;;5031403;28;20522;-70
2023/10/24 00:38:11;;;;;;;11.30;11.00;;;22.80;95.40;;;;;;5031676;28;20480;-70
2023/10/24 00:40:38;;;;;;;11.17;10.87;;;22.90;95.40;;;;;;5031674;28;20940;-70
2023/10/24 00:43:06;;;;;;;11.40;11.10;;;22.90;95.30;;;;;;5023448;28;20441;-69
2023/10/24 00:45:34;;;;;;;11.53;11.13;;;22.90;95.40;;;;;;5031241;28;20497;-71
2023/10/24 00:48:04;;;;;;;11.50;11.20;;;22.90;95.60;;;;;;5031397;28;20461;-70
2023/10/24 00:50:31;;;;;;;11.67;11.37;;;22.90;95.60;;;;;;5035379;28;20475;-70
2023/10/24 00:52:59;;;;;;;12.87;12.33;;;22.90;95.60;;;;;;5032208;28;20960;-70
2023/10/24 00:55:26;;;;;;;11.77;11.47;;;22.80;95.70;;;;;;5031474;28;20519;-70
2023/10/24 00:57:54;;;;;;;11.50;11.20;;;22.80;95.70;;;;;;5031243;28;20495;-68
2023/10/24 01:00:24;;;;;;;11.33;11.03;;;22.90;95.70;;;;;;5032393;28;21164;-70
2023/10/24 01:02:51;;;;;;;11.83;11.43;;;22.80;95.60;;;;;;5035399;28;20477;-71
2023/10/24 01:05:20;;;;;;;12.10;11.70;;;22.80;95.60;;;;;;5035432;28;20465;-70
2023/10/24 01:07:47;;;;;;;11.40;11.10;;;22.80;95.60;;;;;;5035160;28;20472;-70
2023/10/24 01:10:14;;;;;;;11.90;11.60;;;22.80;95.70;;;;;;5043501;28;20556;-69
2023/10/24 01:12:41;;;;;;;11.20;10.90;;;22.80;95.70;;;;;;5034840;28;20518;-70
2023/10/24 01:15:09;;;;;;;11.83;11.43;;;22.80;95.70;;;;;;5035200;28;20449;-69
2023/10/24 01:17:35;;;;;;;12.80;12.30;;;22.80;95.70;;;;;;5035055;28;20468;-71
2023/10/24 01:20:02;;;;;;;11.13;10.83;;;22.80;95.80;;;;;;5034796;28;20468;-69
2023/10/24 01:22:31;;;;;;;11.80;11.40;;;22.80;95.80;;;;;;5034871;28;20447;-70
2023/10/24 01:24:58;;;;;;;11.37;11.07;;;22.80;95.80;;;;;;5034710;28;20473;-70
2023/10/24 01:27:25;;;;;;;11.40;11.10;;;22.80;95.70;;;;;;5040468;28;20499;-69
2023/10/24 01:29:52;;;;;;;11.50;11.00;;;22.80;95.70;;;;;;5034498;28;20538;-70
2023/10/24 01:32:19;;;;;;;11.70;11.40;;;22.80;95.70;;;;;;5034920;28;20475;-70
2023/10/24 01:34:46;;;;;;;11.63;11.30;;;22.80;95.70;;;;;;5034600;28;20468;-70
2023/10/24 01:37:13;;;;;;;11.20;10.90;;;22.80;95.70;;;;;;5034452;28;20492;-70
2023/10/24 01:39:41;;;;;;;11.50;11.20;;;22.80;95.70;;;;;;5034778;28;20483;-70
2023/10/24 01:42:08;;;;;;;11.93;11.63;;;22.80;95.70;;;;;;5026551;28;20477;-70
2023/10/24 01:44:35;;;;;;;11.30;11.00;;;22.80;95.70;;;;;;5035393;28;20530;-69
2023/10/24 01:47:01;;;;;;;11.30;11.00;;;22.80;95.60;;;;;;5034147;28;20492;-70
2023/10/24 01:49:28;;;;;;;11.20;10.90;;;22.80;95.60;;;;;;5034435;28;20484;-69
2023/10/24 01:51:55;;;;;;;11.80;11.40;;;22.80;95.60;;;;;;5039185;28;20480;-69
2023/10/24 01:54:22;;;;;;;11.70;11.40;;;22.80;95.60;;;;;;5034323;28;20488;-69
2023/10/24 01:56:50;;;;;;;11.30;11.00;;;22.80;95.60;;;;;;5033982;28;20488;-70
2023/10/24 01:59:17;;;;;;;11.10;10.90;;;22.80;95.60;;;;;;5034224;28;20476;-69
2023/10/24 02:01:45;;;;;;;11.20;10.90;;;22.70;95.60;;;;;;5033905;28;20465;-70
2023/10/24 02:04:11;;;;;;;12.13;11.73;;;22.80;95.60;;;;;;5039398;28;20485;-70
2023/10/24 02:06:38;;;;;;;12.00;11.67;;;22.70;95.50;;;;;;5033965;28;20489;-70
2023/10/24 02:09:06;;;;;;;12.30;12.00;;;22.80;95.60;;;;;;5034413;28;20480;-69
2023/10/24 02:11:33;;;;;;;11.77;11.47;;;22.70;95.60;;;;;;5037939;28;20556;-69
2023/10/24 02:14:01;;;;;;;11.70;11.40;;;22.70;95.60;;;;;;5033846;28;20491;-70
2023/10/24 02:16:28;;;;;;;11.90;11.50;;;22.70;95.60;;;;;;5033758;28;20492;-70
2023/10/24 02:18:55;;;;;;;12.63;12.30;;;22.70;95.60;;;;;;5033868;28;20441;-69
2023/10/24 02:21:21;;;;;;;11.83;11.53;;;22.70;95.60;;;;;;5033773;28;20469;-70
2023/10/24 02:23:48;;;;;;;12.33;12.03;;;22.70;95.60;;;;;;5033661;28;20477;-71
2023/10/24 02:26:15;;;;;;;11.70;11.40;;;22.70;95.60;;;;;;5037310;28;20507;-69
2023/10/24 02:28:43;;;;;;;12.63;12.27;;;22.70;95.60;;;;;;5033974;28;20476;-70
2023/10/24 02:31:11;;;;;;;11.50;11.10;;;22.70;95.50;;;;;;5025495;28;20555;-70
2023/10/24 02:33:38;;;;;;;13.20;12.90;;;22.70;95.50;;;;;;5033540;28;20441;-69
2023/10/24 02:36:08;;;;;;;11.80;11.50;;;22.70;95.50;;;;;;5033436;28;20463;-70
2023/10/24 02:38:35;;;;;;;12.83;12.43;;;22.70;95.60;;;;;;5033729;28;20488;-69
2023/10/24 02:41:02;;;;;;;12.23;11.93;;;22.70;95.60;;;;;;5033421;28;20480;-70
2023/10/24 02:43:29;;;;;;;11.80;11.50;;;22.70;95.70;;;;;;5033488;28;20461;-71
2023/10/24 02:45:56;;;;;;;12.23;11.93;;;22.70;95.70;;;;;;5063478;22;20901;-65
2023/10/24 02:48:25;;;;;;;12.90;12.50;;;22.70;95.70;;;;;;5053146;28;20467;-66
2023/10/24 02:50:55;;;;;;;12.90;12.60;;;22.70;95.70;;;;;;5051244;28;20503;-67
2023/10/24 02:53:22;;;;;;;13.00;12.70;;;22.70;95.70;;;;;;5053148;28;20476;-65
2023/10/24 02:55:49;;;;;;;12.93;12.60;;;22.70;95.70;;;;;;5052155;28;20495;-65
2023/10/24 02:58:16;;;;;;;12.40;12.10;;;22.70;95.70;;;;;;5041281;28;20441;-65
2023/10/24 03:00:44;;;;;;;13.10;12.70;;;22.70;95.70;;;;;;5041617;28;20469;-65
2023/10/24 03:03:11;;;;;;;13.80;13.30;;;22.70;95.70;;;;;;5034117;28;20928;-65
2023/10/24 03:05:39;;;;;;;14.20;13.70;;;22.70;95.70;;;;;;5041167;28;20492;-66
2023/10/24 03:08:07;;;;;;;12.50;12.20;;;22.70;95.70;;;;;;5043989;28;20455;-65
2023/10/24 03:10:39;;;;;;;12.90;12.50;;;22.70;95.70;;;;;;5044573;28;20514;-65
2023/10/24 03:13:06;;;;;;;12.70;12.40;;;22.70;96.00;;;;;;5041395;28;20465;-66
2023/10/24 03:15:34;;;;;;;13.83;13.27;;;22.70;95.60;;;;;;5039742;28;20500;-65
2023/10/24 03:18:01;;;;;;;13.83;13.43;;;22.70;95.50;;;;;;5042159;28;20454;-66
2023/10/24 03:20:28;;;;;;;13.60;13.10;;;22.70;95.60;;;;;;5040965;28;20468;-65
2023/10/24 03:22:56;;;;;;;14.00;13.60;;;22.70;95.60;;;;;;5041977;28;20476;-66
2023/10/24 03:25:24;;;;;;;13.87;13.47;;;22.70;95.70;;;;;;5044227;28;20475;-65
2023/10/24 03:27:53;;;;;;;13.47;13.07;;;22.70;95.70;;;;;;5039454;28;20445;-65
2023/10/24 03:30:19;;;;;;;13.60;13.10;;;22.60;95.70;;;;;;5041043;28;20857;-65
2023/10/24 03:32:47;;;;;;;12.80;12.50;;;22.70;95.90;;;;;;5040509;28;20473;-67
2023/10/24 03:35:14;;;;;;;13.03;12.63;;;22.70;95.90;;;;;;5044007;28;20993;-65
2023/10/24 03:37:41;;;;;;;13.60;13.30;;;22.70;95.80;;;;;;5043994;28;20444;-65
2023/10/24 03:40:11;;;;;;;14.60;13.87;;;22.70;95.80;;;;;;5036449;28;20473;-66
2023/10/24 03:42:38;;;;;;;14.57;14.10;;;22.60;95.80;;;;;;5040393;28;20441;-65
2023/10/24 03:45:06;;;;;;;13.30;13.00;;;22.70;96.00;;;;;;5042763;28;20480;-66
2023/10/24 03:47:32;;;;;;;12.90;12.50;;;22.60;96.00;;;;;;5043222;28;20479;-65
2023/10/24 03:49:59;;;;;;;13.70;13.30;;;22.70;95.70;;;;;;5041969;28;20472;-65
2023/10/24 03:52:26;;;;;;;13.10;12.80;;;22.70;95.80;;;;;;5040268;28;20906;-65
2023/10/24 03:54:53;;;;;;;13.47;12.97;;;22.60;96.20;;;;;;5041164;28;20442;-66
2023/10/24 03:57:22;;;;;;;13.60;13.20;;;22.60;96.30;;;;;;5043110;28;20491;-64
2023/10/24 03:59:49;;;;;;;13.97;13.57;;;22.60;96.40;;;;;;5043358;28;20464;-65
2023/10/24 04:02:15;;;;;;;13.70;13.30;;;22.60;96.20;;;;;;5041934;28;20464;-66
2023/10/24 04:04:42;;;;;;;14.53;14.03;;;22.70;96.30;;;;;;5043548;28;20954;-65
2023/10/24 04:07:09;;;;;;;15.83;15.23;;;22.70;96.30;;;;;;5040642;28;20872;-66
2023/10/24 04:09:36;;;;;;;13.97;13.57;;;22.70;96.40;;;;;;5045118;28;20877;-66
2023/10/24 04:12:04;;;;;;;14.10;13.70;;;22.70;96.30;;;;;;5041320;28;20480;-67
2023/10/24 04:14:32;;;;;;;15.10;14.50;;;22.70;96.60;;;;;;5040070;28;20885;-65
2023/10/24 04:16:59;;;;;;;14.80;14.40;;;22.70;96.20;;;;;;5041580;28;20484;-65
2023/10/24 04:19:26;;;;;;;14.10;13.70;;;22.70;96.30;;;;;;5043285;28;20475;-65
2023/10/24 04:21:53;;;;;;;15.00;14.60;;;22.70;96.20;;;;;;5040412;28;20476;-65
2023/10/24 04:24:20;;;;;;;14.93;14.53;;;22.70;96.20;;;;;;5040035;28;20464;-65
2023/10/24 04:26:47;;;;;;;14.20;13.80;;;22.70;96.40;;;;;;5039846;28;20492;-65
2023/10/24 04:29:13;;;;;;;14.73;14.33;;;22.70;96.30;;;;;;5039828;28;20464;-66
2023/10/24 04:31:42;;;;;;;15.93;15.30;;;22.70;96.10;;;;;;5039892;28;20553;-66
2023/10/24 04:34:09;;;;;;;15.10;14.70;;;22.70;95.90;;;;;;5046262;28;20445;-65
2023/10/24 04:36:35;;;;;;;14.60;14.20;;;22.70;95.70;;;;;;5038564;28;20475;-66
2023/10/24 04:39:02;;;;;;;15.60;14.90;;;22.70;95.50;;;;;;5041543;28;20468;-65
2023/10/24 04:41:29;;;;;;;16.47;15.60;;;22.70;95.50;;;;;;5043147;28;21137;-65
2023/10/24 04:43:56;;;;;;;14.77;13.65;;;22.70;95.60;;;;;;5035814;28;20886;-65
2023/10/24 04:46:23;;;;;;;18.83;17.50;;;22.70;98.20;;;;;;5036684;28;20268;-65
2023/10/24 04:48:52;;;;;;;18.43;16.90;;;22.80;98.20;;;;;;5039544;28;20441;-65
2023/10/24 04:51:18;;;;;;;17.27;16.17;;;22.80;96.90;;;;;;5042637;28;20500;-64
2023/10/24 04:53:45;;;;;;;22.20;16.90;;;22.90;96.60;;;;;;5042289;28;20495;-66
2023/10/24 04:56:12;;;;;;;17.47;16.50;;;22.90;96.50;;;;;;5039424;28;20564;-65
2023/10/24 04:58:39;;;;;;;17.00;15.80;;;22.90;96.60;;;;;;5039433;28;20849;-65
2023/10/24 05:01:06;;;;;;;15.37;14.67;;;22.90;96.50;;;;;;5041692;28;20444;-67
2023/10/24 05:03:34;;;;;;;17.00;16.10;;;22.80;96.40;;;;;;5042795;28;20478;-65
2023/10/24 05:06:03;;;;;;;17.20;16.07;;;22.80;96.50;;;;;;5041028;28;20466;-65
2023/10/24 05:08:30;;;;;;;18.37;17.37;;;22.80;96.50;;;;;;5039407;28;21127;-65
2023/10/24 05:10:57;;;;;;;18.23;17.23;;;22.80;96.50;;;;;;5040206;28;20527;-65
2023/10/24 05:13:24;;;;;;;18.27;17.47;;;22.80;96.40;;;;;;5042643;28;20479;-65
2023/10/24 05:15:50;;;;;;;15.93;15.20;;;22.80;96.40;;;;;;5042476;28;20488;-66
2023/10/24 05:18:17;;;;;;;16.80;15.77;;;22.80;96.40;;;;;;5039298;28;20469;-65
2023/10/24 05:20:44;;;;;;;17.23;15.80;;;22.80;96.50;;;;;;5039085;28;20983;-64
2023/10/24 05:23:12;;;;;;;17.37;16.17;;;22.80;96.40;;;;;;5041879;28;20468;-65
2023/10/24 05:25:41;;;;;;;16.13;14.97;;;22.80;96.40;;;;;;5042577;28;20983;-65
2023/10/24 05:28:08;;;;;;;17.00;16.00;;;22.80;96.40;;;;;;5040032;28;20970;-65
2023/10/24 05:30:38;;;;;;;17.53;16.63;;;22.80;96.40;;;;;;5039060;28;20473;-65
2023/10/24 05:33:05;;;;;;;16.10;15.30;;;22.90;96.40;;;;;;5040945;28;20445;-66
2023/10/24 05:35:33;;;;;;;16.27;15.47;;;22.80;96.30;;;;;;5042400;28;20826;-65
2023/10/24 05:38:00;;;;;;;16.03;15.03;;;22.80;96.10;;;;;;5041059;28;20957;-65
2023/10/24 05:40:28;;;;;;;17.97;16.50;;;22.80;96.10;;;;;;5039163;28;20866;-65
2023/10/24 05:42:55;;;;;;;16.30;15.50;;;22.80;96.10;;;;;;5039386;28;20480;-66
2023/10/24 05:45:23;;;;;;;19.37;18.40;;;22.80;96.00;;;;;;5042236;28;20937;-64
2023/10/24 05:47:50;;;;;;;17.13;16.53;;;22.90;96.00;;;;;;5044266;28;20804;-64
2023/10/24 05:50:18;;;;;;;16.93;16.07;;;22.80;95.90;;;;;;5042567;28;20480;-66
2023/10/24 05:52:46;;;;;;;16.93;16.13;;;22.80;95.90;;;;;;5042519;28;20488;-65
2023/10/24 05:55:12;;;;;;;15.57;15.07;;;22.80;95.80;;;;;;5045106;28;20472;-65
2023/10/24 05:57:41;;;;;;;16.47;15.87;;;22.90;95.70;;;;;;5045705;28;20467;-66
2023/10/24 06:00:09;;;;;;;16.63;15.87;;;22.80;95.70;;;;;;5043480;28;20481;-66
2023/10/24 06:02:36;;;;;;;17.67;16.17;;;22.90;95.60;;;;;;5042347;28;20472;-65
2023/10/24 06:05:03;;;;;;;15.93;15.20;;;22.90;95.50;;;;;;5043562;28;20472;-65
2023/10/24 06:07:30;;;;;;;18.20;17.40;;;22.90;95.50;;;;;;5045534;28;20459;-65
2023/10/24 06:09:57;;;;;;;15.83;14.93;;;22.90;95.50;;;;;;5044686;28;20476;-65
2023/10/24 06:12:24;;;;;;;17.20;16.30;;;22.90;95.40;;;;;;5042043;28;20508;-65
2023/10/24 06:14:52;;;;;;;17.57;16.67;;;22.90;95.40;;;;;;5042118;28;20469;-65
2023/10/24 06:17:19;;;;;;;17.37;16.30;;;22.90;95.40;;;;;;5033924;28;20504;-65
2023/10/24 06:19:48;;;;;;;16.27;15.77;;;22.90;95.40;;;;;;5041975;28;20480;-65
2023/10/24 06:22:16;;;;;;;16.10;15.40;;;22.90;95.40;;;;;;5044771;28;20824;-65
2023/10/24 06:24:43;;;;;;;16.53;15.40;;;22.90;95.30;;;;;;5045248;28;20474;-65
2023/10/24 06:27:11;;;;;;;17.57;16.67;;;22.90;95.30;;;;;;5042737;28;20496;-66
2023/10/24 06:29:38;;;;;;;18.40;17.17;;;22.90;95.30;;;;;;5041811;28;20451;-65
2023/10/24 06:32:07;;;;;;;18.33;17.70;;;22.90;95.30;;;;;;5043254;28;20554;-65
2023/10/24 06:34:35;;;;;;;17.23;16.53;;;22.90;95.30;;;;;;5045056;28;20506;-65
2023/10/24 06:37:03;;;;;;;15.40;14.80;;;22.90;95.60;;;;;;5043641;28;20971;-65
2023/10/24 06:39:30;;;;;;;17.13;16.03;;;22.90;95.20;;;;;;5041572;28;20441;-66
2023/10/24 06:41:57;;;;;;;16.40;15.80;;;22.90;95.20;;;;;;5041974;28;20469;-65
2023/10/24 06:44:24;;;;;;;16.50;15.90;;;22.90;95.20;;;;;;5044761;28;20476;-66
2023/10/24 06:46:51;;;;;;;15.63;15.13;;;22.90;95.10;;;;;;5044671;28;20502;-65
2023/10/24 06:49:19;;;;;;;18.13;17.43;;;22.90;95.10;;;;;;5041380;28;20572;-65
2023/10/24 06:51:46;;;;;;;16.47;15.70;;;22.90;95.00;;;;;;5041151;28;21047;-66
2023/10/24 06:54:13;;;;;;;18.13;16.90;;;22.90;95.00;;;;;;5043779;28;20477;-65
2023/10/24 06:56:40;;;;;;;17.70;17.00;;;22.90;95.00;;;;;;5044553;28;20544;-65
2023/10/24 06:59:07;;;;;;;17.87;16.90;;;22.90;95.00;;;;;;5042461;28;20448;-65
2023/10/24 07:01:34;;;;;;;15.93;15.33;;;22.90;95.00;;;;;;5041115;28;20465;-65
2023/10/24 07:04:00;;;;;;;15.90;15.20;;;22.90;95.00;;;;;;5041842;28;20477;-66
2023/10/24 07:06:29;;;;;;;17.77;16.80;;;22.90;94.90;;;;;;5044397;28;20502;-65
2023/10/24 07:08:56;;;;;;;15.93;15.33;;;22.90;94.90;;;;;;5044205;28;20472;-66
2023/10/24 07:11:23;;;;;;;19.33;18.50;;;22.90;94.90;;;;;;5040881;28;20441;-66
2023/10/24 07:13:51;;;;;;;17.73;16.43;;;22.90;94.90;;;;;;5040929;28;20475;-65
2023/10/24 07:16:18;;;;;;;18.00;17.40;;;22.90;94.80;;;;;;5043781;28;20491;-65
2023/10/24 07:18:45;;;;;;;17.00;16.27;;;22.90;94.80;;;;;;5044293;28;20909;-66
2023/10/24 07:21:12;;;;;;;16.90;16.03;;;22.90;94.80;;;;;;5041942;28;20471;-65
2023/10/24 07:23:40;;;;;;;14.90;14.50;;;22.80;94.70;;;;;;5040842;28;20437;-64
2023/10/24 07:26:07;;;;;;;17.10;16.40;;;22.90;94.70;;;;;;5042083;28;20888;-66
2023/10/24 07:28:34;;;;;;;16.40;15.80;;;22.90;94.70;;;;;;5044086;28;20475;-68
2023/10/24 07:31:01;;;;;;;18.10;17.27;;;22.90;94.70;;;;;;5043098;28;20539;-68
2023/10/24 07:33:27;;;;;;;16.90;16.20;;;22.90;94.60;;;;;;5040634;28;20509;-67
2023/10/24 07:35:54;;;;;;;15.83;15.23;;;22.90;94.60;;;;;;5040295;28;20496;-68
2023/10/24 07:38:21;;;;;;;16.57;15.80;;;22.90;94.50;;;;;;5040400;28;20952;-67
2023/10/24 07:40:49;;;;;;;16.33;15.73;;;22.90;94.50;;;;;;5040424;28;20445;-68
2023/10/24 07:43:16;;;;;;;16.33;15.70;;;22.90;94.50;;;;;;5043044;28;20520;-67
2023/10/24 07:45:48;;;;;;;16.93;16.33;;;22.90;94.50;;;;;;5043666;28;20934;-68
2023/10/24 07:48:15;;;;;;;15.80;15.10;;;22.90;94.40;;;;;;5041040;28;20535;-68
2023/10/24 07:50:50;;;;;;;15.47;15.07;;;22.90;94.40;;;;;;5040244;28;20480;-68
2023/10/24 07:53:17;;;;;;;16.20;15.70;;;22.90;94.30;;;;;;5042837;28;20487;-68
2023/10/24 07:55:45;;;;;;;15.50;15.00;;;22.90;94.30;;;;;;5043517;28;20487;-68
2023/10/24 07:58:13;;;;;;;16.67;16.17;;;22.90;94.30;;;;;;5041409;28;20472;-66
2023/10/24 08:00:40;;;;;;;16.30;15.77;;;22.90;94.20;;;;;;5040150;28;20470;-68
2023/10/24 08:03:07;;;;;;;16.93;16.33;;;22.90;94.20;;;;;;5041298;28;20480;-68
2023/10/24 08:05:34;;;;;;;16.83;16.33;;;22.90;94.20;;;;;;5043351;28;20493;-67
2023/10/24 08:08:01;;;;;;;16.63;16.03;;;22.90;94.20;;;;;;5042685;28;20475;-68
2023/10/24 08:10:28;;;;;;;16.67;16.17;;;22.90;94.10;;;;;;5039464;28;20480;-67
2023/10/24 08:12:54;;;;;;;16.80;16.20;;;22.90;94.10;;;;;;5039876;28;20509;-68
2023/10/24 08:15:23;;;;;;;16.40;15.90;;;22.90;94.10;;;;;;5042943;28;20472;-68
2023/10/24 08:17:50;;;;;;;16.97;16.43;;;22.90;94.10;;;;;;5043356;28;20862;-68
2023/10/24 08:20:17;;;;;;;16.57;15.90;;;22.90;94.00;;;;;;5040430;28;20451;-68
2023/10/24 08:22:44;;;;;;;15.83;15.33;;;22.90;94.00;;;;;;5039712;28;20469;-67
2023/10/24 08:25:11;;;;;;;16.73;16.10;;;22.90;94.00;;;;;;5041469;28;20480;-69
2023/10/24 08:27:38;;;;;;;17.17;16.53;;;22.90;94.00;;;;;;5043132;28;20480;-67
2023/10/24 08:30:06;;;;;;;16.20;15.60;;;22.90;94.00;;;;;;5041982;28;20472;-68
2023/10/24 08:32:34;;;;;;;16.60;15.80;;;22.90;94.00;;;;;;5039434;28;20564;-68
2023/10/24 08:35:01;;;;;;;16.23;15.63;;;22.90;93.90;;;;;;5039912;28;20483;-68
2023/10/24 08:37:28;;;;;;;15.60;15.20;;;22.90;93.90;;;;;;5043097;28;20460;-68
2023/10/24 08:39:55;;;;;;;16.90;16.40;;;22.90;93.90;;;;;;5043146;28;20440;-68
2023/10/24 08:42:22;;;;;;;16.27;15.57;;;22.90;93.90;;;;;;5039700;28;20473;-68
2023/10/24 08:44:51;;;;;;;16.33;15.83;;;22.90;93.90;;;;;;5039517;28;20437;-68
2023/10/24 08:47:20;;;;;;;16.00;15.50;;;22.90;93.80;;;;;;5042204;28;20473;-65
2023/10/24 08:49:49;;;;;;;15.37;14.87;;;22.90;93.80;;;;;;5042823;28;20440;-65
2023/10/24 08:52:16;;;;;;;16.47;15.87;;;22.90;93.80;;;;;;5040428;28;20516;-65
2023/10/24 08:54:43;;;;;;;16.23;15.73;;;22.90;93.70;;;;;;5039431;28;20449;-65
2023/10/24 08:57:10;;;;;;;16.23;15.50;;;22.90;93.70;;;;;;5040776;28;20984;-65
2023/10/24 08:59:41;;;;;;;15.00;14.50;;;22.90;93.70;;;;;;5042794;28;20873;-65
2023/10/24 09:02:11;;;;;;;16.73;16.13;;;22.90;93.70;;;;;;5041367;28;20440;-65
2023/10/24 09:04:39;;;;;;;17.30;16.60;;;22.90;93.70;;;;;;5039358;28;20477;-65
2023/10/24 09:07:07;;;;;;;17.30;16.80;;;22.90;93.70;;;;;;5039979;28;20492;-65
2023/10/24 09:09:34;;;;;;;15.57;15.17;;;22.90;93.60;;;;;;5042738;28;20955;-65
2023/10/24 09:12:05;;;;;;;15.93;15.33;;;22.90;93.60;;;;;;5042336;28;20936;-67
2023/10/24 09:14:32;;;;;;;15.57;15.17;;;22.90;93.60;;;;;;5039514;28;20843;-66
2023/10/24 09:17:03;;;;;;;16.50;16.00;;;22.90;93.60;;;;;;5039151;28;20496;-63
2023/10/24 09:19:30;;;;;;;17.07;16.40;;;22.90;93.60;;;;;;5031863;28;20449;-64
2023/10/24 09:21:57;;;;;;;17.10;16.30;;;22.90;93.60;;;;;;5041374;28;20487;-65
2023/10/24 09:24:26;;;;;;;16.87;16.27;;;22.90;93.70;;;;;;5046218;28;20808;-64
2023/10/24 09:26:54;;;;;;;16.77;16.17;;;22.90;93.60;;;;;;5046204;28;20577;-64
2023/10/24 09:29:21;;;;;;;16.50;16.00;;;22.90;93.60;;;;;;5043550;28;20468;-64
2023/10/24 09:31:49;;;;;;;15.57;15.17;;;22.90;93.60;;;;;;5042883;28;20785;-64
2023/10/24 09:34:16;;;;;;;16.27;15.77;;;22.90;93.60;;;;;;5044782;28;20445;-65
2023/10/24 09:36:44;;;;;;;17.20;16.70;;;22.90;93.50;;;;;;5045977;28;20465;-65
2023/10/24 09:39:11;;;;;;;16.50;16.00;;;22.90;93.50;;;;;;5044652;28;20468;-64
2023/10/24 09:41:41;;;;;;;16.80;16.30;;;22.90;93.50;;;;;;5042682;28;20440;-64
2023/10/24 09:44:09;;;;;;;17.07;16.67;;;23.00;93.60;;;;;;5043516;28;20465;-63
2023/10/24 09:46:36;;;;;;;17.23;16.73;;;22.90;93.50;;;;;;5045857;28;20491;-64
2023/10/24 09:49:04;;;;;;;17.00;16.50;;;22.90;93.50;;;;;;5045480;28;20476;-64
2023/10/24 09:51:32;;;;;;;16.23;15.73;;;23.00;93.60;;;;;;5042570;28;20469;-64
2023/10/24 09:54:00;;;;;;;17.20;16.70;;;23.00;93.50;;;;;;5042320;28;20515;-64
2023/10/24 09:56:27;;;;;;;15.73;15.23;;;23.00;93.50;;;;;;5034184;28;20457;-64
2023/10/24 09:58:56;;;;;;;17.20;16.70;;;22.90;93.40;;;;;;5042378;28;20463;-64
2023/10/24 10:01:23;;;;;;;16.00;15.53;;;22.90;93.40;;;;;;5045190;28;20880;-64
2023/10/24 10:03:51;;;;;;;15.80;15.20;;;23.00;93.50;;;;;;5045545;28;20505;-65
2023/10/24 10:06:18;;;;;;;15.60;15.10;;;23.00;93.40;;;;;;5043104;28;20550;-65
2023/10/24 10:08:47;;;;;;;15.93;15.33;;;23.00;93.40;;;;;;5037428;28;20510;-71
2023/10/24 10:11:15;;;;;;;16.33;15.83;;;23.00;93.50;;;;;;5029509;28;20472;-68
2023/10/24 10:13:51;;;;;;;16.00;15.60;;;23.00;94.60;;;;;;5045025;28;20504;-65
2023/10/24 10:16:35;;;;;;;17.47;16.77;;;23.00;94.60;;;;;;5043307;28;20495;-67
2023/10/24 10:19:23;;;;;;;15.93;15.53;;;23.00;94.70;;;;;;5041692;28;20478;-72
2023/10/24 10:22:02;;;;;;;16.00;15.50;;;23.00;94.70;;;;;;5037087;28;20445;-66
2023/10/24 10:25:12;;;;;;;17.07;16.47;;;23.00;95.30;;;;;;5034078;28;20435;-66
2023/10/24 10:27:48;;;;;;;14.98;14.48;;;23.00;94.90;;;;;;5029199;28;20448;-72
2023/10/24 10:30:24;;;;;;;16.83;16.20;;;23.00;95.40;;;;;;5043913;28;20613;-67
2023/10/24 10:33:10;;;;;;;16.97;16.47;;;23.00;95.40;;;;;;5045718;28;20472;-69
2023/10/24 10:35:50;;;;;;;16.65;16.15;;;23.10;95.60;;;;;;5046537;28;20417;-74
2023/10/24 10:38:39;;;;;;;13.65;13.15;;;23.10;96.00;;;;;;5043113;28;20466;-73
2023/10/24 10:41:34;;;;;;;16.60;16.07;;;23.10;96.30;;;;;;5042601;28;20233;-68
2023/10/24 10:44:02;;;;;;;16.73;16.13;;;23.10;96.50;;;;;;5042618;28;21019;-68
2023/10/24 10:46:30;;;;;;;17.47;16.90;;;23.20;96.90;;;;;;5042209;28;20519;-67
2023/10/24 10:48:59;;;;;;;17.27;16.57;;;23.10;96.80;;;;;;5049651;28;20513;-67
2023/10/24 10:51:29;;;;;;;17.27;16.70;;;23.20;96.60;;;;;;5036334;28;20451;-68
2023/10/24 10:54:04;;;;;;;15.97;15.47;;;23.20;96.70;;;;;;5041828;28;20508;-68
2023/10/24 10:56:33;;;;;;;17.13;16.63;;;23.20;97.20;;;;;;5041482;28;20460;-68
2023/10/24 10:59:36;;;;;;;17.27;16.77;;;23.10;96.80;;;;;;5039566;28;20483;-67
2023/10/24 11:02:24;;;;;;;16.17;15.67;;;23.20;96.70;;;;;;5042670;28;20583;-67
2023/10/24 11:04:52;;;;;;;16.13;15.70;;;23.10;96.50;;;;;;5044807;28;20440;-73
2023/10/24 11:07:52;;;;;;;16.40;15.90;;;23.20;97.00;;;;;;5042595;28;20496;-73
2023/10/24 11:10:21;;;;;;;15.40;15.00;;;23.20;96.60;;;;;;5043149;28;20457;-63
2023/10/24 11:12:49;;;;;;;16.77;16.10;;;23.20;96.30;;;;;;5044392;28;20515;-63
2023/10/24 11:15:28;;;;;;;16.80;16.30;;;23.20;96.10;;;;;;5042738;28;20471;-63
2023/10/24 11:18:00;;;;;;;17.20;16.67;;;23.20;95.90;;;;;;5040806;28;20453;-63
2023/10/24 11:20:31;;;;;;;16.27;15.73;;;23.20;95.70;;;;;;5043758;28;20858;-63
2023/10/24 11:23:01;;;;;;;17.03;16.43;;;23.20;95.60;;;;;;5044143;28;20815;-64
2023/10/24 11:25:28;;;;;;;17.37;16.87;;;23.20;95.50;;;;;;5040773;28;20931;-64
2023/10/24 11:28:12;;;;;;;16.30;15.70;;;23.20;95.40;;;;;;5040481;28;20804;-64
2023/10/24 11:30:40;;;;;;;15.50;15.10;;;23.20;95.30;;;;;;5033696;28;20495;-64
2023/10/24 11:33:10;;;;;;;16.23;15.77;;;23.20;95.20;;;;;;5040601;28;20508;-64
2023/10/24 11:35:57;;;;;;;15.30;14.90;;;23.20;95.10;;;;;;5042354;28;21006;-64
2023/10/24 11:38:24;;;;;;;16.00;15.60;;;23.10;95.00;;;;;;5041454;28;20444;-64
2023/10/24 11:40:57;;;;;;;16.30;15.80;;;23.20;95.30;;;;;;5040341;28;20441;-64
2023/10/24 11:43:24;;;;;;;16.17;15.77;;;23.10;94.80;;;;;;5042746;28;20445;-64
2023/10/24 11:45:53;;;;;;;16.03;15.63;;;23.10;94.80;;;;;;5042639;28;20472;-64
2023/10/24 11:48:20;;;;;;;16.57;15.87;;;23.10;94.70;;;;;;5040942;28;20448;-64
2023/10/24 11:50:49;;;;;;;15.73;15.23;;;23.10;94.60;;;;;;5040333;28;20472;-64
2023/10/24 11:53:22;;;;;;;16.40;16.00;;;23.10;94.60;;;;;;5041330;28;20518;-64
2023/10/24 11:55:53;;;;;;;16.70;16.10;;;23.10;94.50;;;;;;5042295;28;20843;-65
2023/10/24 11:58:23;;;;;;;15.53;15.13;;;23.10;94.50;;;;;;5041665;28;20475;-64
2023/10/24 12:00:57;;;;;;;16.33;15.83;;;23.10;94.50;;;;;;5039087;28;20449;-64
2023/10/24 12:03:24;;;;;;;15.47;15.07;;;23.10;94.40;;;;;;5042585;28;20444;-65
2023/10/24 12:06:07;;;;;;;15.60;15.20;;;23.10;94.30;;;;;;5043075;28;20488;-64
2023/10/24 12:08:37;;;;;;;16.00;15.50;;;23.00;94.30;;;;;;5032317;28;20535;-64
2023/10/24 12:11:04;;;;;;;16.00;15.60;;;23.10;94.20;;;;;;5038584;28;20455;-65
2023/10/24 12:13:31;;;;;;;16.13;15.63;;;23.10;94.20;;;;;;5042943;28;20877;-64
2023/10/24 12:15:58;;;;;;;16.10;15.60;;;23.00;94.20;;;;;;5043193;28;20484;-64
2023/10/24 12:18:25;;;;;;;16.67;16.20;;;23.00;94.10;;;;;;5040840;28;20495;-64
2023/10/24 12:20:52;;;;;;;14.93;14.43;;;23.00;94.10;;;;;;5039695;28;20469;-64
2023/10/24 12:23:21;;;;;;;15.33;14.93;;;23.00;94.10;;;;;;5041316;28;20472;-65
2023/10/24 12:25:49;;;;;;;15.60;15.20;;;23.00;94.10;;;;;;5043217;28;20885;-65
2023/10/24 12:28:16;;;;;;;15.40;15.00;;;23.00;94.10;;;;;;5041813;28;20448;-65
2023/10/24 12:30:43;;;;;;;16.33;15.73;;;23.00;94.00;;;;;;5039662;28;20526;-64
2023/10/24 12:33:10;;;;;;;15.90;15.43;;;23.00;94.00;;;;;;5039835;28;20924;-65
2023/10/24 12:35:37;;;;;;;15.87;15.47;;;23.00;94.00;;;;;;5042902;28;20488;-65